sensor_id;sensor_type;location;lat;lon;timestamp;temperature;humidity
81218;DHT22;70689;52.494;13.420;2023-07-24T00:02:07;21.90;43.70
81218;DHT22;70689;52.494;13.420;2023-07-24T00:04:33;22.00;43.50
81218;DHT22;70689;52.494;13.420;2023-07-24T00:06:59;21.90;43.50
81218;DHT22;70689;52.494;13.420;2023-07-24T00:09:25;21.90;43.50
81218;DHT22;70689;52.494;13.420;2023-07-24T00:11:51;21.90;43.50
81218;DHT22;70689;52.494;13.420;2023-07-24T00:14:17;22.00;43.30
81218;DHT22;70689;52.494;13.420;2023-07-24T00:16:42;22.00;42.90
81218;DHT22;70689;52.494;13.420;2023-07-24T00:19:08;22.00;42.70
81218;DHT22;70689;52.494;13.420;2023-07-24T00:21:34;21.90;42.50
81218;DHT22;70689;52.494;13.420;2023-07-24T00:23:59;21.80;42.80
81218;DHT22;70689;52.494;13.420;2023-07-24T00:26:25;21.70;43.00
81218;DHT22;70689;52.494;13.420;2023-07-24T00:28:51;21.80;42.90
81218;DHT22;70689;52.494;13.420;2023-07-24T00:31:16;21.80;42.60
81218;DHT22;70689;52.494;13.420;2023-07-24T00:33:42;21.80;42.30
81218;DHT22;70689;52.494;13.420;2023-07-24T00:36:08;21.70;42.50
81218;DHT22;70689;52.494;13.420;2023-07-24T00:38:34;21.70;42.50
81218;DHT22;70689;52.494;13.420;2023-07-24T00:40:59;21.80;42.40
81218;DHT22;70689;52.494;13.420;2023-07-24T00:43:25;21.80;42.30
81218;DHT22;70689;52.494;13.420;2023-07-24T00:45:51;21.90;41.90
81218;DHT22;70689;52.494;13.420;2023-07-24T00:48:17;21.80;41.90
81218;DHT22;70689;52.494;13.420;2023-07-24T00:50:43;21.80;42.10
81218;DHT22;70689;52.494;13.420;2023-07-24T00:53:11;21.80;42.10
81218;DHT22;70689;52.494;13.420;2023-07-24T00:55:38;21.70;42.20
81218;DHT22;70689;52.494;13.420;2023-07-24T00:58:04;21.80;42.10
81218;DHT22;70689;52.494;13.420;2023-07-24T01:00:30;21.90;41.90
81218;DHT22;70689;52.494;13.420;2023-07-24T01:02:56;21.80;41.70
81218;DHT22;70689;52.494;13.420;2023-07-24T01:05:25;21.90;41.70
81218;DHT22;70689;52.494;13.420;2023-07-24T01:07:54;21.80;41.70
81218;DHT22;70689;52.494;13.420;2023-07-24T01:10:19;21.80;41.90
81218;DHT22;70689;52.494;13.420;2023-07-24T01:13:08;21.80;42.00
81218;DHT22;70689;52.494;13.420;2023-07-24T01:15:43;21.80;43.20
81218;DHT22;70689;52.494;13.420;2023-07-24T01:18:11;21.80;42.10
81218;DHT22;70689;52.494;13.420;2023-07-24T01:20:43;21.80;42.10
81218;DHT22;70689;52.494;13.420;2023-07-24T01:26:01;21.70;42.40
81218;DHT22;70689;52.494;13.420;2023-07-24T01:28:30;21.70;42.70
81218;DHT22;70689;52.494;13.420;2023-07-24T01:30:56;21.70;42.60
81218;DHT22;70689;52.494;13.420;2023-07-24T01:33:23;21.70;42.70
81218;DHT22;70689;52.494;13.420;2023-07-24T01:35:53;21.70;42.90
81218;DHT22;70689;52.494;13.420;2023-07-24T01:38:19;21.70;43.10
81218;DHT22;70689;52.494;13.420;2023-07-24T01:40:45;21.80;43.20
81218;DHT22;70689;52.494;13.420;2023-07-24T01:43:11;21.70;43.20
81218;DHT22;70689;52.494;13.420;2023-07-24T01:45:37;21.70;43.50
81218;DHT22;70689;52.494;13.420;2023-07-24T01:48:06;21.70;43.50
81218;DHT22;70689;52.494;13.420;2023-07-24T01:50:32;21.70;43.70
81218;DHT22;70689;52.494;13.420;2023-07-24T01:52:58;21.70;43.80
81218;DHT22;70689;52.494;13.420;2023-07-24T01:55:24;21.70;43.70
81218;DHT22;70689;52.494;13.420;2023-07-24T01:57:50;21.80;43.60
81218;DHT22;70689;52.494;13.420;2023-07-24T02:00:15;21.80;43.50
81218;DHT22;70689;52.494;13.420;2023-07-24T02:02:41;21.80;43.40
81218;DHT22;70689;52.494;13.420;2023-07-24T02:05:07;21.80;43.10
81218;DHT22;70689;52.494;13.420;2023-07-24T02:07:33;21.80;43.10
81218;DHT22;70689;52.494;13.420;2023-07-24T02:09:58;21.80;43.00
81218;DHT22;70689;52.494;13.420;2023-07-24T02:12:24;21.70;43.20
81218;DHT22;70689;52.494;13.420;2023-07-24T02:14:50;21.60;43.30
81218;DHT22;70689;52.494;13.420;2023-07-24T02:17:17;21.70;43.10
81218;DHT22;70689;52.494;13.420;2023-07-24T02:19:44;21.70;43.20
81218;DHT22;70689;52.494;13.420;2023-07-24T02:22:10;21.70;43.00
81218;DHT22;70689;52.494;13.420;2023-07-24T02:24:35;21.80;43.00
81218;DHT22;70689;52.494;13.420;2023-07-24T02:27:01;21.80;42.80
81218;DHT22;70689;52.494;13.420;2023-07-24T02:29:27;21.70;44.00
81218;DHT22;70689;52.494;13.420;2023-07-24T02:31:54;21.70;43.10
81218;DHT22;70689;52.494;13.420;2023-07-24T02:34:20;21.60;43.60
81218;DHT22;70689;52.494;13.420;2023-07-24T02:36:50;21.60;43.80
81218;DHT22;70689;52.494;13.420;2023-07-24T02:39:16;21.50;44.10
81218;DHT22;70689;52.494;13.420;2023-07-24T02:41:41;21.50;44.50
81218;DHT22;70689;52.494;13.420;2023-07-24T02:44:07;21.40;45.00
81218;DHT22;70689;52.494;13.420;2023-07-24T02:46:33;21.30;45.40
81218;DHT22;70689;52.494;13.420;2023-07-24T02:48:58;21.20;46.00
81218;DHT22;70689;52.494;13.420;2023-07-24T02:51:24;21.30;46.40
81218;DHT22;70689;52.494;13.420;2023-07-24T02:53:50;21.20;46.60
81218;DHT22;70689;52.494;13.420;2023-07-24T02:56:15;21.20;46.90
81218;DHT22;70689;52.494;13.420;2023-07-24T02:58:41;21.20;47.10
81218;DHT22;70689;52.494;13.420;2023-07-24T03:01:07;21.30;47.20
81218;DHT22;70689;52.494;13.420;2023-07-24T03:03:34;21.20;47.50
81218;DHT22;70689;52.494;13.420;2023-07-24T03:06:00;21.20;47.50
81218;DHT22;70689;52.494;13.420;2023-07-24T03:08:25;21.30;47.50
81218;DHT22;70689;52.494;13.420;2023-07-24T03:10:51;21.30;47.50
81218;DHT22;70689;52.494;13.420;2023-07-24T03:13:17;21.30;47.70
81218;DHT22;70689;52.494;13.420;2023-07-24T03:15:42;21.30;47.70
81218;DHT22;70689;52.494;13.420;2023-07-24T03:18:08;21.30;48.00
81218;DHT22;70689;52.494;13.420;2023-07-24T03:20:34;21.30;48.00
81218;DHT22;70689;52.494;13.420;2023-07-24T03:22:59;21.40;48.10
81218;DHT22;70689;52.494;13.420;2023-07-24T03:25:25;21.40;48.10
81218;DHT22;70689;52.494;13.420;2023-07-24T03:27:51;21.30;48.40
81218;DHT22;70689;52.494;13.420;2023-07-24T03:30:16;21.30;48.60
81218;DHT22;70689;52.494;13.420;2023-07-24T03:32:42;21.30;48.60
81218;DHT22;70689;52.494;13.420;2023-07-24T03:35:08;21.30;48.70
81218;DHT22;70689;52.494;13.420;2023-07-24T03:37:34;21.30;49.00
81218;DHT22;70689;52.494;13.420;2023-07-24T03:40:01;21.30;49.00
81218;DHT22;70689;52.494;13.420;2023-07-24T03:42:28;21.20;49.30
81218;DHT22;70689;52.494;13.420;2023-07-24T03:44:55;21.30;49.70
81218;DHT22;70689;52.494;13.420;2023-07-24T03:47:21;21.30;50.10
81218;DHT22;70689;52.494;13.420;2023-07-24T03:49:46;21.40;50.00
81218;DHT22;70689;52.494;13.420;2023-07-24T03:52:12;21.30;50.20
81218;DHT22;70689;52.494;13.420;2023-07-24T03:54:38;21.30;50.40
81218;DHT22;70689;52.494;13.420;2023-07-24T03:57:04;21.30;50.70
81218;DHT22;70689;52.494;13.420;2023-07-24T03:59:30;21.20;51.00
81218;DHT22;70689;52.494;13.420;2023-07-24T04:01:56;21.30;50.90
81218;DHT22;70689;52.494;13.420;2023-07-24T04:04:22;21.30;51.40
81218;DHT22;70689;52.494;13.420;2023-07-24T04:06:47;21.30;52.10
81218;DHT22;70689;52.494;13.420;2023-07-24T04:09:13;21.20;53.20
81218;DHT22;70689;52.494;13.420;2023-07-24T04:11:44;21.30;53.30
81218;DHT22;70689;52.494;13.420;2023-07-24T04:14:10;21.30;54.60
81218;DHT22;70689;52.494;13.420;2023-07-24T04:16:36;21.30;53.30
81218;DHT22;70689;52.494;13.420;2023-07-24T04:19:02;21.30;53.20
81218;DHT22;70689;52.494;13.420;2023-07-24T04:21:28;21.30;53.10
81218;DHT22;70689;52.494;13.420;2023-07-24T04:23:54;21.40;53.20
81218;DHT22;70689;52.494;13.420;2023-07-24T04:26:19;21.30;53.00
81218;DHT22;70689;52.494;13.420;2023-07-24T04:28:45;21.40;52.70
81218;DHT22;70689;52.494;13.420;2023-07-24T04:31:11;21.40;52.90
81218;DHT22;70689;52.494;13.420;2023-07-24T04:33:36;21.50;52.70
81218;DHT22;70689;52.494;13.420;2023-07-24T04:36:02;21.50;52.80
81218;DHT22;70689;52.494;13.420;2023-07-24T04:38:28;21.50;52.70
81218;DHT22;70689;52.494;13.420;2023-07-24T04:40:53;21.50;52.80
81218;DHT22;70689;52.494;13.420;2023-07-24T04:43:19;21.50;52.80
81218;DHT22;70689;52.494;13.420;2023-07-24T04:45:45;21.50;53.00
81218;DHT22;70689;52.494;13.420;2023-07-24T04:48:10;21.50;52.90
81218;DHT22;70689;52.494;13.420;2023-07-24T04:50:36;21.50;52.80
81218;DHT22;70689;52.494;13.420;2023-07-24T04:53:02;21.60;52.50
81218;DHT22;70689;52.494;13.420;2023-07-24T04:55:28;21.70;52.50
81218;DHT22;70689;52.494;13.420;2023-07-24T04:57:53;21.60;52.70
81218;DHT22;70689;52.494;13.420;2023-07-24T05:00:19;21.70;52.60
81218;DHT22;70689;52.494;13.420;2023-07-24T05:02:45;21.70;52.50
81218;DHT22;70689;52.494;13.420;2023-07-24T05:05:10;21.80;52.30
81218;DHT22;70689;52.494;13.420;2023-07-24T05:07:36;21.80;52.20
81218;DHT22;70689;52.494;13.420;2023-07-24T05:10:02;21.90;51.80
81218;DHT22;70689;52.494;13.420;2023-07-24T05:12:27;21.90;51.60
81218;DHT22;70689;52.494;13.420;2023-07-24T05:14:53;22.00;51.70
81218;DHT22;70689;52.494;13.420;2023-07-24T05:17:19;22.00;51.30
81218;DHT22;70689;52.494;13.420;2023-07-24T05:19:44;22.10;51.30
81218;DHT22;70689;52.494;13.420;2023-07-24T05:22:10;22.00;51.30
81218;DHT22;70689;52.494;13.420;2023-07-24T05:24:38;22.30;50.90
81218;DHT22;70689;52.494;13.420;2023-07-24T05:27:05;22.40;50.40
81218;DHT22;70689;52.494;13.420;2023-07-24T05:29:31;22.40;50.20
81218;DHT22;70689;52.494;13.420;2023-07-24T05:31:56;22.60;49.80
81218;DHT22;70689;52.494;13.420;2023-07-24T05:34:23;22.60;49.30
81218;DHT22;70689;52.494;13.420;2023-07-24T05:36:48;22.70;49.70
81218;DHT22;70689;52.494;13.420;2023-07-24T05:39:14;22.70;49.40
81218;DHT22;70689;52.494;13.420;2023-07-24T05:41:39;22.60;49.50
81218;DHT22;70689;52.494;13.420;2023-07-24T05:44:05;22.60;49.60
81218;DHT22;70689;52.494;13.420;2023-07-24T05:46:31;22.60;49.50
81218;DHT22;70689;52.494;13.420;2023-07-24T05:48:56;22.60;49.70
81218;DHT22;70689;52.494;13.420;2023-07-24T05:51:22;22.60;49.40
81218;DHT22;70689;52.494;13.420;2023-07-24T05:53:48;22.80;49.20
81218;DHT22;70689;52.494;13.420;2023-07-24T05:56:14;22.80;48.50
81218;DHT22;70689;52.494;13.420;2023-07-24T05:58:39;22.80;48.90
81218;DHT22;70689;52.494;13.420;2023-07-24T06:01:05;22.80;48.80
81218;DHT22;70689;52.494;13.420;2023-07-24T06:03:33;22.80;48.60
81218;DHT22;70689;52.494;13.420;2023-07-24T06:05:59;22.70;48.80
81218;DHT22;70689;52.494;13.420;2023-07-24T06:08:24;22.60;49.10
81218;DHT22;70689;52.494;13.420;2023-07-24T06:10:50;22.60;48.90
81218;DHT22;70689;52.494;13.420;2023-07-24T06:13:17;22.80;48.30
81218;DHT22;70689;52.494;13.420;2023-07-24T06:15:43;22.90;48.20
81218;DHT22;70689;52.494;13.420;2023-07-24T06:18:09;23.00;47.60
81218;DHT22;70689;52.494;13.420;2023-07-24T06:20:35;23.10;47.00
81218;DHT22;70689;52.494;13.420;2023-07-24T06:23:01;23.20;46.30
81218;DHT22;70689;52.494;13.420;2023-07-24T06:25:29;23.20;46.30
81218;DHT22;70689;52.494;13.420;2023-07-24T06:27:56;23.20;46.70
81218;DHT22;70689;52.494;13.420;2023-07-24T06:30:21;23.40;45.70
81218;DHT22;70689;52.494;13.420;2023-07-24T06:32:47;23.50;45.00
81218;DHT22;70689;52.494;13.420;2023-07-24T06:35:12;23.40;44.70
81218;DHT22;70689;52.494;13.420;2023-07-24T06:37:38;23.30;45.30
81218;DHT22;70689;52.494;13.420;2023-07-24T06:40:05;23.40;44.90
81218;DHT22;70689;52.494;13.420;2023-07-24T06:42:31;23.40;44.80
81218;DHT22;70689;52.494;13.420;2023-07-24T06:44:56;23.40;44.30
81218;DHT22;70689;52.494;13.420;2023-07-24T06:47:22;23.30;44.90
81218;DHT22;70689;52.494;13.420;2023-07-24T06:49:47;23.40;44.70
81218;DHT22;70689;52.494;13.420;2023-07-24T06:52:13;23.70;44.10
81218;DHT22;70689;52.494;13.420;2023-07-24T06:54:39;23.80;43.40
81218;DHT22;70689;52.494;13.420;2023-07-24T06:57:04;24.00;43.20
81218;DHT22;70689;52.494;13.420;2023-07-24T06:59:30;24.10;42.70
81218;DHT22;70689;52.494;13.420;2023-07-24T07:01:56;24.40;42.30
81218;DHT22;70689;52.494;13.420;2023-07-24T07:04:21;24.60;41.00
81218;DHT22;70689;52.494;13.420;2023-07-24T07:06:47;24.70;40.90
81218;DHT22;70689;52.494;13.420;2023-07-24T07:09:13;24.70;40.50
81218;DHT22;70689;52.494;13.420;2023-07-24T07:11:38;24.80;40.40
81218;DHT22;70689;52.494;13.420;2023-07-24T07:14:04;24.80;40.40
81218;DHT22;70689;52.494;13.420;2023-07-24T07:16:30;24.70;40.50
81218;DHT22;70689;52.494;13.420;2023-07-24T07:18:55;24.90;40.40
81218;DHT22;70689;52.494;13.420;2023-07-24T07:21:21;25.20;38.20
81218;DHT22;70689;52.494;13.420;2023-07-24T07:23:47;25.90;36.90
81218;DHT22;70689;52.494;13.420;2023-07-24T07:26:12;26.70;34.00
81218;DHT22;70689;52.494;13.420;2023-07-24T07:28:38;27.50;32.50
81218;DHT22;70689;52.494;13.420;2023-07-24T07:31:04;28.50;30.50
81218;DHT22;70689;52.494;13.420;2023-07-24T07:33:30;29.30;29.20
81218;DHT22;70689;52.494;13.420;2023-07-24T07:35:55;30.50;27.30
81218;DHT22;70689;52.494;13.420;2023-07-24T07:38:21;30.70;26.20
81218;DHT22;70689;52.494;13.420;2023-07-24T07:40:48;30.30;26.60
81218;DHT22;70689;52.494;13.420;2023-07-24T07:43:14;30.10;27.00
81218;DHT22;70689;52.494;13.420;2023-07-24T07:45:39;30.00;27.20
81218;DHT22;70689;52.494;13.420;2023-07-24T07:48:05;30.00;26.70
81218;DHT22;70689;52.494;13.420;2023-07-24T07:50:31;30.30;26.50
81218;DHT22;70689;52.494;13.420;2023-07-24T07:52:57;29.30;27.50
81218;DHT22;70689;52.494;13.420;2023-07-24T07:55:23;30.10;26.80
81218;DHT22;70689;52.494;13.420;2023-07-24T07:57:48;30.50;26.00
81218;DHT22;70689;52.494;13.420;2023-07-24T08:00:14;30.70;26.00
81218;DHT22;70689;52.494;13.420;2023-07-24T08:02:40;31.60;25.10
81218;DHT22;70689;52.494;13.420;2023-07-24T08:05:10;32.30;24.40
81218;DHT22;70689;52.494;13.420;2023-07-24T08:07:36;31.60;24.00
81218;DHT22;70689;52.494;13.420;2023-07-24T08:10:03;30.20;26.20
81218;DHT22;70689;52.494;13.420;2023-07-24T08:12:29;29.50;27.50
81218;DHT22;70689;52.494;13.420;2023-07-24T08:14:56;28.90;28.70
81218;DHT22;70689;52.494;13.420;2023-07-24T08:17:21;28.20;29.80
81218;DHT22;70689;52.494;13.420;2023-07-24T08:19:47;27.80;30.30
81218;DHT22;70689;52.494;13.420;2023-07-24T08:22:13;27.80;31.20
81218;DHT22;70689;52.494;13.420;2023-07-24T08:24:38;28.00;29.60
81218;DHT22;70689;52.494;13.420;2023-07-24T08:27:04;28.40;29.10
81218;DHT22;70689;52.494;13.420;2023-07-24T08:29:30;29.50;28.50
81218;DHT22;70689;52.494;13.420;2023-07-24T08:31:55;30.60;26.60
81218;DHT22;70689;52.494;13.420;2023-07-24T08:34:21;31.50;25.20
81218;DHT22;70689;52.494;13.420;2023-07-24T08:36:47;31.20;24.70
81218;DHT22;70689;52.494;13.420;2023-07-24T08:39:13;30.60;25.30
81218;DHT22;70689;52.494;13.420;2023-07-24T08:41:38;29.60;27.10
81218;DHT22;70689;52.494;13.420;2023-07-24T08:44:08;28.90;28.40
81218;DHT22;70689;52.494;13.420;2023-07-24T08:46:36;28.20;29.60
81218;DHT22;70689;52.494;13.420;2023-07-24T08:49:03;27.70;30.50
81218;DHT22;70689;52.494;13.420;2023-07-24T08:51:29;27.10;32.10
81218;DHT22;70689;52.494;13.420;2023-07-24T08:53:57;27.10;32.50
81218;DHT22;70689;52.494;13.420;2023-07-24T08:56:23;27.50;31.60
81218;DHT22;70689;52.494;13.420;2023-07-24T08:58:50;28.30;29.90
81218;DHT22;70689;52.494;13.420;2023-07-24T09:01:16;28.50;29.60
81218;DHT22;70689;52.494;13.420;2023-07-24T09:03:41;28.70;29.80
81218;DHT22;70689;52.494;13.420;2023-07-24T09:06:07;28.40;29.80
81218;DHT22;70689;52.494;13.420;2023-07-24T09:08:38;28.00;30.30
81218;DHT22;70689;52.494;13.420;2023-07-24T09:11:05;27.70;31.30
81218;DHT22;70689;52.494;13.420;2023-07-24T09:13:34;27.60;31.80
81218;DHT22;70689;52.494;13.420;2023-07-24T09:16:00;27.30;31.50
81218;DHT22;70689;52.494;13.420;2023-07-24T09:18:26;27.30;32.20
81218;DHT22;70689;52.494;13.420;2023-07-24T09:20:52;27.00;32.30
81218;DHT22;70689;52.494;13.420;2023-07-24T09:23:26;26.80;32.70
81218;DHT22;70689;52.494;13.420;2023-07-24T09:25:53;26.70;33.20
81218;DHT22;70689;52.494;13.420;2023-07-24T09:28:19;26.70;33.00
81218;DHT22;70689;52.494;13.420;2023-07-24T09:30:56;26.90;33.00
81218;DHT22;70689;52.494;13.420;2023-07-24T09:33:23;27.10;32.50
81218;DHT22;70689;52.494;13.420;2023-07-24T09:36:03;27.20;32.20
81218;DHT22;70689;52.494;13.420;2023-07-24T09:38:29;27.40;31.60
81218;DHT22;70689;52.494;13.420;2023-07-24T09:40:56;27.20;31.70
81218;DHT22;70689;52.494;13.420;2023-07-24T09:43:27;27.30;32.00
81218;DHT22;70689;52.494;13.420;2023-07-24T09:45:54;27.30;31.70
81218;DHT22;70689;52.494;13.420;2023-07-24T09:48:21;27.30;32.10
81218;DHT22;70689;52.494;13.420;2023-07-24T09:50:52;27.50;31.50
81218;DHT22;70689;52.494;13.420;2023-07-24T09:55:57;27.50;31.20
81218;DHT22;70689;52.494;13.420;2023-07-24T09:58:24;27.40;31.40
81218;DHT22;70689;52.494;13.420;2023-07-24T10:00:51;27.60;31.10
81218;DHT22;70689;52.494;13.420;2023-07-24T10:03:17;28.00;30.30
81218;DHT22;70689;52.494;13.420;2023-07-24T10:05:47;28.20;30.00
81218;DHT22;70689;52.494;13.420;2023-07-24T10:08:18;28.40;29.50
81218;DHT22;70689;52.494;13.420;2023-07-24T10:10:44;28.90;28.90
81218;DHT22;70689;52.494;13.420;2023-07-24T10:13:12;28.80;28.70
81218;DHT22;70689;52.494;13.420;2023-07-24T10:15:41;28.90;28.70
81218;DHT22;70689;52.494;13.420;2023-07-24T10:18:08;28.90;28.70
81218;DHT22;70689;52.494;13.420;2023-07-24T10:20:39;29.10;27.70
81218;DHT22;70689;52.494;13.420;2023-07-24T10:23:06;30.00;26.50
81218;DHT22;70689;52.494;13.420;2023-07-24T10:25:34;30.30;26.00
81218;DHT22;70689;52.494;13.420;2023-07-24T10:28:05;30.40;25.70
81218;DHT22;70689;52.494;13.420;2023-07-24T10:30:37;30.60;25.80
81218;DHT22;70689;52.494;13.420;2023-07-24T10:33:13;30.50;25.70
81218;DHT22;70689;52.494;13.420;2023-07-24T10:35:43;30.40;25.90
81218;DHT22;70689;52.494;13.420;2023-07-24T10:38:10;30.10;26.60
81218;DHT22;70689;52.494;13.420;2023-07-24T10:40:36;29.80;26.20
81218;DHT22;70689;52.494;13.420;2023-07-24T10:43:10;29.40;25.80
81218;DHT22;70689;52.494;13.420;2023-07-24T10:45:48;29.20;25.90
81218;DHT22;70689;52.494;13.420;2023-07-24T10:48:15;28.90;26.60
81218;DHT22;70689;52.494;13.420;2023-07-24T10:50:43;28.90;26.70
81218;DHT22;70689;52.494;13.420;2023-07-24T10:53:10;29.10;25.90
81218;DHT22;70689;52.494;13.420;2023-07-24T10:55:36;29.50;25.70
81218;DHT22;70689;52.494;13.420;2023-07-24T10:58:02;30.30;24.30
81218;DHT22;70689;52.494;13.420;2023-07-24T11:00:28;31.20;22.90
81218;DHT22;70689;52.494;13.420;2023-07-24T11:02:54;31.80;22.30
81218;DHT22;70689;52.494;13.420;2023-07-24T11:05:23;32.80;20.80
81218;DHT22;70689;52.494;13.420;2023-07-24T11:07:49;32.90;20.30
81218;DHT22;70689;52.494;13.420;2023-07-24T11:10:23;32.90;20.20
81218;DHT22;70689;52.494;13.420;2023-07-24T11:12:48;32.70;20.10
81218;DHT22;70689;52.494;13.420;2023-07-24T11:15:16;32.10;20.80
81218;DHT22;70689;52.494;13.420;2023-07-24T11:17:42;31.80;21.40
81218;DHT22;70689;52.494;13.420;2023-07-24T11:20:13;32.20;21.20
81218;DHT22;70689;52.494;13.420;2023-07-24T11:22:41;32.10;21.30
81218;DHT22;70689;52.494;13.420;2023-07-24T11:25:08;31.20;22.60
81218;DHT22;70689;52.494;13.420;2023-07-24T11:27:41;31.60;22.00
81218;DHT22;70689;52.494;13.420;2023-07-24T11:30:10;31.50;21.90
81218;DHT22;70689;52.494;13.420;2023-07-24T11:32:38;30.70;23.00
81218;DHT22;70689;52.494;13.420;2023-07-24T11:35:04;30.10;24.30
81218;DHT22;70689;52.494;13.420;2023-07-24T11:37:30;30.00;24.50
81218;DHT22;70689;52.494;13.420;2023-07-24T11:40:01;29.50;25.00
81218;DHT22;70689;52.494;13.420;2023-07-24T11:42:37;29.10;25.70
81218;DHT22;70689;52.494;13.420;2023-07-24T11:45:03;29.10;26.10
81218;DHT22;70689;52.494;13.420;2023-07-24T11:47:29;29.10;25.30
81218;DHT22;70689;52.494;13.420;2023-07-24T11:50:01;29.10;25.70
81218;DHT22;70689;52.494;13.420;2023-07-24T11:52:41;29.40;25.10
81218;DHT22;70689;52.494;13.420;2023-07-24T11:55:13;29.70;24.80
81218;DHT22;70689;52.494;13.420;2023-07-24T11:57:39;29.60;25.00
81218;DHT22;70689;52.494;13.420;2023-07-24T12:00:18;29.20;25.30
81218;DHT22;70689;52.494;13.420;2023-07-24T12:02:44;29.00;25.90
81218;DHT22;70689;52.494;13.420;2023-07-24T12:05:11;28.80;26.00
81218;DHT22;70689;52.494;13.420;2023-07-24T12:07:36;28.90;25.80
81218;DHT22;70689;52.494;13.420;2023-07-24T12:10:06;28.70;26.10
81218;DHT22;70689;52.494;13.420;2023-07-24T12:12:47;28.60;26.50
81218;DHT22;70689;52.494;13.420;2023-07-24T12:15:14;28.30;26.90
81218;DHT22;70689;52.494;13.420;2023-07-24T12:17:40;28.20;27.10
81218;DHT22;70689;52.494;13.420;2023-07-24T12:20:07;28.10;26.90
81218;DHT22;70689;52.494;13.420;2023-07-24T12:22:35;27.90;27.00
81218;DHT22;70689;52.494;13.420;2023-07-24T12:25:02;27.80;28.00
81218;DHT22;70689;52.494;13.420;2023-07-24T12:27:28;27.70;28.00
81218;DHT22;70689;52.494;13.420;2023-07-24T12:29:54;27.40;30.00
81218;DHT22;70689;52.494;13.420;2023-07-24T12:32:20;27.40;30.90
81218;DHT22;70689;52.494;13.420;2023-07-24T12:34:48;27.30;32.80
81218;DHT22;70689;52.494;13.420;2023-07-24T12:37:14;27.40;32.30
81218;DHT22;70689;52.494;13.420;2023-07-24T12:39:39;27.30;32.60
81218;DHT22;70689;52.494;13.420;2023-07-24T12:42:05;27.10;33.60
81218;DHT22;70689;52.494;13.420;2023-07-24T12:44:32;26.90;33.70
81218;DHT22;70689;52.494;13.420;2023-07-24T12:46:58;26.80;34.30
81218;DHT22;70689;52.494;13.420;2023-07-24T12:49:23;26.70;35.60
81218;DHT22;70689;52.494;13.420;2023-07-24T12:51:49;26.70;36.00
81218;DHT22;70689;52.494;13.420;2023-07-24T12:54:15;27.10;35.80
81218;DHT22;70689;52.494;13.420;2023-07-24T12:56:40;27.20;35.40
81218;DHT22;70689;52.494;13.420;2023-07-24T12:59:06;27.30;35.30
81218;DHT22;70689;52.494;13.420;2023-07-24T13:01:32;27.30;35.60
81218;DHT22;70689;52.494;13.420;2023-07-24T13:03:58;27.30;35.30
81218;DHT22;70689;52.494;13.420;2023-07-24T13:06:24;27.30;35.50
81218;DHT22;70689;52.494;13.420;2023-07-24T13:08:49;27.10;35.70
81218;DHT22;70689;52.494;13.420;2023-07-24T13:11:15;27.10;36.30
81218;DHT22;70689;52.494;13.420;2023-07-24T13:13:41;26.80;37.20
81218;DHT22;70689;52.494;13.420;2023-07-24T13:16:07;26.60;37.80
81218;DHT22;70689;52.494;13.420;2023-07-24T13:18:32;26.60;38.50
81218;DHT22;70689;52.494;13.420;2023-07-24T13:20:58;26.50;38.40
81218;DHT22;70689;52.494;13.420;2023-07-24T13:23:24;26.60;38.90
81218;DHT22;70689;52.494;13.420;2023-07-24T13:25:51;26.70;39.10
81218;DHT22;70689;52.494;13.420;2023-07-24T13:28:17;26.70;38.10
81218;DHT22;70689;52.494;13.420;2023-07-24T13:30:43;26.80;38.10
81218;DHT22;70689;52.494;13.420;2023-07-24T13:33:09;26.90;38.10
81218;DHT22;70689;52.494;13.420;2023-07-24T13:35:34;26.90;37.60
81218;DHT22;70689;52.494;13.420;2023-07-24T13:38:00;26.90;38.60
81218;DHT22;70689;52.494;13.420;2023-07-24T13:40:26;27.10;36.80
81218;DHT22;70689;52.494;13.420;2023-07-24T13:42:52;27.40;36.70
81218;DHT22;70689;52.494;13.420;2023-07-24T13:45:17;27.60;36.10
81218;DHT22;70689;52.494;13.420;2023-07-24T13:47:43;28.00;35.40
81218;DHT22;70689;52.494;13.420;2023-07-24T13:50:09;28.20;34.70
81218;DHT22;70689;52.494;13.420;2023-07-24T13:52:35;28.60;34.00
81218;DHT22;70689;52.494;13.420;2023-07-24T13:55:00;28.90;32.70
81218;DHT22;70689;52.494;13.420;2023-07-24T13:57:27;28.90;32.60
81218;DHT22;70689;52.494;13.420;2023-07-24T13:59:52;28.80;32.80
81218;DHT22;70689;52.494;13.420;2023-07-24T14:02:18;28.50;34.10
81218;DHT22;70689;52.494;13.420;2023-07-24T14:04:44;28.40;34.30
81218;DHT22;70689;52.494;13.420;2023-07-24T14:07:10;28.40;34.50
81218;DHT22;70689;52.494;13.420;2023-07-24T14:09:38;28.40;34.50
81218;DHT22;70689;52.494;13.420;2023-07-24T14:12:04;28.10;35.70
81218;DHT22;70689;52.494;13.420;2023-07-24T14:14:30;27.90;36.60
81218;DHT22;70689;52.494;13.420;2023-07-24T14:16:55;27.90;36.80
81218;DHT22;70689;52.494;13.420;2023-07-24T14:19:21;27.60;37.70
81218;DHT22;70689;52.494;13.420;2023-07-24T14:21:49;27.70;37.70
81218;DHT22;70689;52.494;13.420;2023-07-24T14:24:15;27.60;38.90
81218;DHT22;70689;52.494;13.420;2023-07-24T14:26:41;27.70;38.60
81218;DHT22;70689;52.494;13.420;2023-07-24T14:29:07;27.80;37.80
81218;DHT22;70689;52.494;13.420;2023-07-24T14:31:32;27.70;38.40
81218;DHT22;70689;52.494;13.420;2023-07-24T14:33:58;27.90;37.80
81218;DHT22;70689;52.494;13.420;2023-07-24T14:36:24;27.70;38.80
81218;DHT22;70689;52.494;13.420;2023-07-24T14:38:49;27.50;39.00
81218;DHT22;70689;52.494;13.420;2023-07-24T14:41:16;27.50;38.80
81218;DHT22;70689;52.494;13.420;2023-07-24T14:43:42;27.50;39.10
81218;DHT22;70689;52.494;13.420;2023-07-24T14:46:08;27.40;39.80
81218;DHT22;70689;52.494;13.420;2023-07-24T14:48:33;27.30;39.80
81218;DHT22;70689;52.494;13.420;2023-07-24T14:50:59;27.30;40.30
81218;DHT22;70689;52.494;13.420;2023-07-24T14:53:25;27.30;38.80
81218;DHT22;70689;52.494;13.420;2023-07-24T14:55:51;27.20;38.30
81218;DHT22;70689;52.494;13.420;2023-07-24T14:58:16;26.90;36.80
81218;DHT22;70689;52.494;13.420;2023-07-24T15:00:42;26.90;35.60
81218;DHT22;70689;52.494;13.420;2023-07-24T15:03:08;26.90;35.70
81218;DHT22;70689;52.494;13.420;2023-07-24T15:05:33;26.90;35.30
81218;DHT22;70689;52.494;13.420;2023-07-24T15:07:59;27.00;34.60
81218;DHT22;70689;52.494;13.420;2023-07-24T15:10:25;26.90;34.30
81218;DHT22;70689;52.494;13.420;2023-07-24T15:12:51;27.10;34.30
81218;DHT22;70689;52.494;13.420;2023-07-24T15:15:16;27.00;34.50
81218;DHT22;70689;52.494;13.420;2023-07-24T15:17:42;27.00;34.80